Time;durP1;ratioP1;P1;durP2;ratioP2;P2;SDS_P1;SDS_P2;PMS_P1;PMS_P2;Temp;Humidity;BMP_temperature;BMP_pressure;BME280_temperature;BME280_humidity;BME280_pressure;Samples;Min_cycle;Max_cycle;Signal;HPM_P1;HPM_P2
2022/02/27 00:00:13;;;;;;;15.55;6.80;;;3.10;91.70;;;;;;2062422;28;20042;-89
2022/02/27 00:01:14;;;;;;;16.63;7.28;;;3.10;91.70;;;;;;2058245;28;20042;-89
2022/02/27 00:02:14;;;;;;;15.60;7.05;;;3.10;91.70;;;;;;2065376;28;20072;-88
2022/02/27 00:03:15;;;;;;;14.02;6.43;;;3.10;91.70;;;;;;2056551;28;20098;-89
2022/02/27 00:04:16;;;;;;;16.00;7.28;;;3.10;91.70;;;;;;2050020;28;20039;-89
2022/02/27 00:05:16;;;;;;;14.48;6.80;;;3.10;91.70;;;;;;2048462;28;20039;-89
2022/02/27 00:06:17;;;;;;;14.35;6.13;;;3.10;91.70;;;;;;2057555;28;20125;-89
2022/02/27 00:07:17;;;;;;;13.77;6.40;;;3.10;91.70;;;;;;2057767;28;20489;-89
2022/02/27 00:08:18;;;;;;;13.85;6.32;;;3.10;91.70;;;;;;2059478;28;20105;-89
2022/02/27 00:09:19;;;;;;;16.48;7.03;;;3.00;91.70;;;;;;2056147;28;20039;-89
2022/02/27 00:10:21;;;;;;;14.55;6.85;;;3.10;91.70;;;;;;2048679;28;20058;-89
2022/02/27 00:11:22;;;;;;;13.88;6.65;;;3.10;91.70;;;;;;2057403;28;20106;-89
2022/02/27 00:12:23;;;;;;;15.32;6.32;;;3.00;91.70;;;;;;2057211;28;20088;-89
2022/02/27 00:13:24;;;;;;;14.27;6.15;;;3.00;91.70;;;;;;2057033;28;20367;-89
2022/02/27 00:14:25;;;;;;;15.27;6.82;;;3.00;91.70;;;;;;2048741;28;20102;-89
2022/02/27 00:15:25;;;;;;;13.85;6.47;;;3.00;91.70;;;;;;2056784;28;20085;-88
2022/02/27 00:16:26;;;;;;;12.90;5.72;;;3.00;91.70;;;;;;2061991;28;20042;-89
2022/02/27 00:17:27;;;;;;;11.20;5.68;;;3.00;91.70;;;;;;2056412;28;20461;-89
2022/02/27 00:18:28;;;;;;;15.35;6.38;;;3.00;91.70;;;;;;2053450;28;20545;-89
2022/02/27 00:19:28;;;;;;;12.00;5.47;;;3.00;91.70;;;;;;2056599;28;20038;-89
2022/02/27 00:20:29;;;;;;;13.05;5.43;;;3.00;91.70;;;;;;2055476;28;20069;-89
2022/02/27 00:21:29;;;;;;;13.63;5.72;;;3.00;91.70;;;;;;2032868;28;20163;-89
2022/02/27 00:22:30;;;;;;;13.65;6.10;;;3.00;91.70;;;;;;2048523;28;20575;-89
2022/02/27 00:23:31;;;;;;;11.82;5.13;;;3.00;91.70;;;;;;2062474;28;20039;-89
2022/02/27 00:24:31;;;;;;;14.90;6.03;;;3.00;91.70;;;;;;2056235;28;20054;-89
2022/02/27 00:25:32;;;;;;;11.75;5.70;;;3.00;91.70;;;;;;2057178;28;20039;-89
2022/02/27 00:26:32;;;;;;;12.38;5.90;;;3.00;91.70;;;;;;2057221;28;20046;-89
2022/02/27 00:27:37;;;;;;;12.27;5.50;;;3.00;91.70;;;;;;2057248;28;20043;-89
2022/02/27 00:28:39;;;;;;;15.73;5.60;;;3.00;91.70;;;;;;2056783;28;20097;-89
2022/02/27 00:29:40;;;;;;;11.27;4.95;;;3.00;91.70;;;;;;2047462;28;20122;-89
2022/02/27 00:30:40;;;;;;;12.40;5.13;;;3.00;91.70;;;;;;2040461;28;20047;-88
2022/02/27 00:31:41;;;;;;;10.13;5.47;;;3.00;91.70;;;;;;2048598;28;20520;-89
2022/02/27 00:32:42;;;;;;;10.35;5.15;;;3.00;91.70;;;;;;2065306;28;20046;-89
2022/02/27 00:33:42;;;;;;;10.93;5.47;;;3.00;91.70;;;;;;2059548;28;20054;-89
2022/02/27 00:34:43;;;;;;;14.43;5.60;;;3.00;91.70;;;;;;2050277;28;20038;-89
2022/02/27 00:35:44;;;;;;;11.68;5.65;;;3.00;91.70;;;;;;2056688;28;20146;-89
2022/02/27 00:36:46;;;;;;;11.80;4.95;;;3.00;91.70;;;;;;2056662;28;20034;-89
2022/02/27 00:37:46;;;;;;;12.88;4.95;;;3.00;91.70;;;;;;2055894;28;20030;-89
2022/02/27 00:38:47;;;;;;;11.27;5.25;;;2.90;91.70;;;;;;2058146;28;20035;-89
2022/02/27 00:39:48;;;;;;;12.32;5.47;;;3.00;91.70;;;;;;2048038;28;20409;-89
2022/02/27 00:40:48;;;;;;;10.75;5.25;;;3.00;91.70;;;;;;2028758;29;20140;-88
2022/02/27 00:41:49;;;;;;;12.52;5.38;;;3.00;91.70;;;;;;2030006;29;20046;-89
2022/02/27 00:42:49;;;;;;;10.23;4.75;;;3.00;91.70;;;;;;2032592;28;20048;-88
2022/02/27 00:43:50;;;;;;;11.90;5.05;;;2.90;91.70;;;;;;2043766;28;20522;-89
2022/02/27 00:44:51;;;;;;;11.15;4.55;;;2.90;91.70;;;;;;2048404;28;20168;-89
2022/02/27 00:45:51;;;;;;;10.20;4.47;;;2.90;91.70;;;;;;2048039;28;20497;-89
2022/02/27 00:46:52;;;;;;;12.70;4.78;;;2.90;91.70;;;;;;2061939;28;20061;-89
2022/02/27 00:47:53;;;;;;;14.57;5.80;;;2.90;91.70;;;;;;2063270;28;20034;-89
2022/02/27 00:48:53;;;;;;;9.90;4.75;;;2.90;91.70;;;;;;2056035;28;20082;-89
2022/02/27 00:49:54;;;;;;;12.00;4.55;;;2.90;91.70;;;;;;2056838;28;20060;-89
2022/02/27 00:50:54;;;;;;;12.98;5.68;;;2.90;91.70;;;;;;2061549;28;20049;-89
2022/02/27 00:51:55;;;;;;;10.70;4.25;;;2.90;91.70;;;;;;2065048;28;20080;-89
2022/02/27 00:52:56;;;;;;;9.55;4.63;;;2.90;91.70;;;;;;2064926;28;20042;-89
2022/02/27 00:53:56;;;;;;;11.45;4.60;;;2.90;91.70;;;;;;2064986;28;20396;-89
2022/02/27 00:54:57;;;;;;;11.13;4.25;;;2.90;91.70;;;;;;2063367;28;20133;-89
2022/02/27 00:55:58;;;;;;;8.75;4.32;;;2.90;91.70;;;;;;2063015;28;20041;-89
2022/02/27 00:56:59;;;;;;;9.00;4.30;;;2.90;91.80;;;;;;2061153;28;20038;-89
2022/02/27 00:58:00;;;;;;;13.18;5.18;;;2.90;91.80;;;;;;2054077;28;20454;-88
2022/02/27 00:59:01;;;;;;;13.77;5.00;;;2.90;91.70;;;;;;2048389;28;20023;-89
2022/02/27 01:00:02;;;;;;;11.13;4.85;;;2.90;91.70;;;;;;2056385;28;20035;-87
2022/02/27 01:01:03;;;;;;;12.20;5.30;;;2.90;91.70;;;;;;2056370;28;20031;-88
2022/02/27 01:02:03;;;;;;;11.32;5.18;;;2.90;91.70;;;;;;2056330;28;20043;-89
2022/02/27 01:03:04;;;;;;;14.20;4.95;;;2.90;91.60;;;;;;2063267;28;20043;-89
2022/02/27 01:04:05;;;;;;;11.18;4.90;;;2.90;91.60;;;;;;2062554;28;20049;-89
2022/02/27 01:05:06;;;;;;;13.98;5.10;;;2.90;91.60;;;;;;2059151;28;20507;-89
2022/02/27 01:06:06;;;;;;;11.15;4.70;;;2.90;91.60;;;;;;2096957;28;20107;-88
2022/02/27 01:07:07;;;;;;;12.65;5.10;;;2.90;91.60;;;;;;2099819;28;20070;-88
2022/02/27 01:08:07;;;;;;;11.32;4.40;;;2.90;91.60;;;;;;2062029;28;20038;-89
2022/02/27 01:09:08;;;;;;;14.57;5.18;;;2.90;91.60;;;;;;2056460;28;20531;-89
2022/02/27 01:10:09;;;;;;;12.82;5.15;;;2.90;91.60;;;;;;2055283;28;20039;-89
2022/02/27 01:11:12;;;;;;;15.55;5.78;;;2.90;91.60;;;;;;2055032;28;20085;-89
2022/02/27 01:12:12;;;;;;;11.73;5.30;;;2.90;91.60;;;;;;2056739;28;20576;-89
2022/02/27 01:13:13;;;;;;;11.73;4.82;;;2.90;91.60;;;;;;2063374;28;20073;-89
2022/02/27 01:14:13;;;;;;;12.00;4.43;;;2.90;91.60;;;;;;2064126;28;20041;-89
2022/02/27 01:15:14;;;;;;;12.27;4.78;;;2.90;91.60;;;;;;2060776;28;20494;-89
2022/02/27 01:16:15;;;;;;;12.45;4.75;;;2.90;91.60;;;;;;2048083;28;20043;-88
2022/02/27 01:17:16;;;;;;;10.70;4.53;;;2.90;91.60;;;;;;2057593;28;20454;-88
2022/02/27 01:18:16;;;;;;;10.75;4.50;;;2.90;91.60;;;;;;2056293;28;20046;-89
2022/02/27 01:19:17;;;;;;;11.20;3.90;;;2.80;91.60;;;;;;2056258;28;20046;-89
2022/02/27 01:20:17;;;;;;;10.25;4.03;;;2.80;91.60;;;;;;2056364;28;20389;-89
2022/02/27 01:21:19;;;;;;;10.25;4.38;;;2.90;91.60;;;;;;2056383;28;20066;-89
2022/02/27 01:22:19;;;;;;;11.02;4.15;;;2.80;91.60;;;;;;2064489;28;20095;-89
2022/02/27 01:23:20;;;;;;;8.73;4.03;;;2.90;91.60;;;;;;2064256;28;20476;-89
2022/02/27 01:24:21;;;;;;;9.48;3.80;;;2.80;91.60;;;;;;2049879;28;20047;-89
2022/02/27 01:25:21;;;;;;;10.68;4.78;;;2.90;91.60;;;;;;2049831;28;20039;-89
2022/02/27 01:26:22;;;;;;;10.07;4.32;;;2.80;91.60;;;;;;2055253;28;20058;-89
2022/02/27 01:27:22;;;;;;;10.85;4.00;;;2.80;91.50;;;;;;2055595;28;20405;-89
2022/02/27 01:28:23;;;;;;;8.40;3.70;;;2.80;91.50;;;;;;2054548;28;20042;-89
2022/02/27 01:29:24;;;;;;;10.48;4.07;;;2.80;91.50;;;;;;2039467;28;20036;-88
2022/02/27 01:30:24;;;;;;;8.38;3.85;;;2.80;91.50;;;;;;2055719;28;20047;-89
2022/02/27 01:31:25;;;;;;;7.22;3.40;;;2.80;91.50;;;;;;2040560;28;20028;-89
2022/02/27 01:32:26;;;;;;;11.77;3.85;;;2.80;91.50;;;;;;2040386;28;20533;-89
2022/02/27 01:33:26;;;;;;;8.88;3.60;;;2.80;91.50;;;;;;2064660;28;20058;-89
2022/02/27 01:34:27;;;;;;;10.27;3.90;;;2.80;91.50;;;;;;2064317;28;20073;-89
2022/02/27 01:35:28;;;;;;;8.27;3.60;;;2.80;91.50;;;;;;2056151;28;20133;-89
2022/02/27 01:36:28;;;;;;;8.93;3.78;;;2.80;91.50;;;;;;2051244;28;20070;-89
2022/02/27 01:37:29;;;;;;;10.52;4.18;;;2.80;91.50;;;;;;2080858;28;20041;-89
2022/02/27 01:38:29;;;;;;;10.38;4.32;;;2.80;91.50;;;;;;2039912;28;20039;-88
2022/02/27 01:39:30;;;;;;;9.35;3.67;;;2.80;91.50;;;;;;2054390;28;20038;-88
2022/02/27 01:40:31;;;;;;;8.23;4.10;;;2.80;91.50;;;;;;2059145;28;20101;-89
2022/02/27 01:41:32;;;;;;;13.23;4.32;;;2.80;91.50;;;;;;2065372;28;20348;-89
2022/02/27 01:42:32;;;;;;;11.35;3.95;;;2.80;91.50;;;;;;2064444;28;20396;-89
2022/02/27 01:43:33;;;;;;;12.07;4.55;;;2.80;91.50;;;;;;2056030;28;20142;-89
2022/02/27 01:44:34;;;;;;;11.65;4.40;;;2.80;91.80;;;;;;2055989;28;20059;-89
2022/02/27 01:45:34;;;;;;;11.57;4.28;;;2.80;91.50;;;;;;2056403;28;20455;-88
2022/02/27 01:46:35;;;;;;;8.30;4.18;;;2.80;91.50;;;;;;2055319;28;20046;-89
2022/02/27 01:47:36;;;;;;;10.70;4.35;;;2.80;91.50;;;;;;2087396;28;20037;-89
2022/02/27 01:48:38;;;;;;;10.27;3.92;;;2.80;91.80;;;;;;2055398;28;20031;-89
2022/02/27 01:49:40;;;;;;;10.82;3.95;;;2.80;91.50;;;;;;2064280;28;20039;-89
2022/02/27 01:50:41;;;;;;;10.60;4.05;;;2.80;91.50;;;;;;2057213;28;20026;-89
2022/02/27 01:51:41;;;;;;;8.20;3.80;;;2.80;91.50;;;;;;2057141;28;20104;-90
2022/02/27 01:52:42;;;;;;;9.23;3.80;;;2.80;91.50;;;;;;2062754;28;20039;-88
2022/02/27 01:53:43;;;;;;;9.88;3.92;;;2.80;91.50;;;;;;2063186;28;20042;-89
2022/02/27 01:54:44;;;;;;;9.00;3.75;;;2.80;91.50;;;;;;2064607;28;20523;-89
2022/02/27 01:55:46;;;;;;;9.63;3.63;;;2.80;91.50;;;;;;2080511;28;20132;-88
2022/02/27 01:56:47;;;;;;;8.23;3.50;;;2.80;91.50;;;;;;2055615;28;20031;-89
2022/02/27 01:57:48;;;;;;;8.68;3.45;;;2.70;91.50;;;;;;2063830;28;20046;-89
2022/02/27 01:58:49;;;;;;;9.45;3.70;;;2.70;91.50;;;;;;2087847;28;20033;-88
2022/02/27 01:59:50;;;;;;;8.70;3.78;;;2.70;91.50;;;;;;2047779;28;20047;-89
2022/02/27 02:00:50;;;;;;;8.05;3.47;;;2.70;91.50;;;;;;2051399;28;20388;-89
2022/02/27 02:01:51;;;;;;;9.25;3.60;;;2.70;91.50;;;;;;2060098;28;20042;-89
2022/02/27 02:02:52;;;;;;;7.75;3.28;;;2.70;91.50;;;;;;2064799;28;20580;-89
2022/02/27 02:03:53;;;;;;;8.18;3.60;;;2.70;91.50;;;;;;2064055;28;20046;-89
2022/02/27 02:04:54;;;;;;;7.82;3.42;;;2.70;91.50;;;;;;2063969;28;20030;-89
2022/02/27 02:05:55;;;;;;;10.77;3.65;;;2.70;91.60;;;;;;2061557;28;20110;-89
2022/02/27 02:06:55;;;;;;;8.88;3.78;;;2.80;91.60;;;;;;2068861;28;20396;-89
2022/02/27 02:07:56;;;;;;;10.82;3.88;;;2.70;91.50;;;;;;2048041;28;20039;-89
2022/02/27 02:08:56;;;;;;;10.48;3.78;;;2.70;91.80;;;;;;2055026;28;20122;-89
2022/02/27 02:09:57;;;;;;;11.18;3.92;;;2.70;91.50;;;;;;2055537;28;20042;-88
2022/02/27 02:10:59;;;;;;;7.93;3.45;;;2.70;91.50;;;;;;2089279;28;20094;-89
2022/02/27 02:12:00;;;;;;;9.93;3.80;;;2.70;91.60;;;;;;2055898;28;20074;-88
2022/02/27 02:13:01;;;;;;;8.70;3.58;;;2.70;91.50;;;;;;2063951;28;20117;-88
2022/02/27 02:14:03;;;;;;;10.10;3.67;;;2.70;91.50;;;;;;2056100;28;20479;-89
2022/02/27 02:15:05;;;;;;;8.48;3.78;;;2.70;91.50;;;;;;2056038;28;20038;-89
2022/02/27 02:16:06;;;;;;;11.07;3.75;;;2.70;91.60;;;;;;2055784;28;20093;-89
2022/02/27 02:17:06;;;;;;;9.20;3.80;;;2.70;91.50;;;;;;2048989;28;20082;-89
2022/02/27 02:18:08;;;;;;;8.20;3.83;;;2.70;91.50;;;;;;2060156;28;20042;-89
2022/02/27 02:19:09;;;;;;;10.90;4.03;;;2.70;91.50;;;;;;2060456;28;20512;-89
2022/02/27 02:20:14;;;;;;;10.38;3.95;;;2.70;91.50;;;;;;2060720;28;20083;-88
2022/02/27 02:21:14;;;;;;;11.32;3.97;;;2.70;91.50;;;;;;2060290;28;20077;-88
2022/02/27 02:22:16;;;;;;;8.13;3.45;;;2.70;91.50;;;;;;2059720;28;20156;-89
2022/02/27 02:23:16;;;;;;;9.60;3.88;;;2.70;91.50;;;;;;2055100;28;20065;-89
2022/02/27 02:24:18;;;;;;;12.18;4.38;;;2.70;91.50;;;;;;2055785;28;20124;-89
2022/02/27 02:25:19;;;;;;;10.68;3.97;;;2.70;91.50;;;;;;2063294;28;20031;-88
2022/02/27 02:26:22;;;;;;;11.43;3.92;;;2.70;91.50;;;;;;2056252;28;20035;-89
2022/02/27 02:27:22;;;;;;;10.38;3.67;;;2.70;91.50;;;;;;2056336;28;20137;-89
2022/02/27 02:28:23;;;;;;;12.25;4.78;;;2.60;91.40;;;;;;2056840;28;20414;-89
2022/02/27 02:29:24;;;;;;;10.27;3.95;;;2.70;91.50;;;;;;2055685;28;20138;-89
2022/02/27 02:30:25;;;;;;;10.68;4.43;;;2.60;91.50;;;;;;2047654;28;20077;-88
2022/02/27 02:31:26;;;;;;;7.25;3.85;;;2.70;91.50;;;;;;2047524;28;20119;-88
2022/02/27 02:32:27;;;;;;;11.00;4.10;;;2.60;91.40;;;;;;2039961;28;20044;-89
2022/02/27 02:33:37;;;;;;;8.60;3.63;;;2.60;91.50;;;;;;2039892;28;20138;-89
2022/02/27 02:34:38;;;;;;;8.93;3.70;;;2.60;91.50;;;;;;2048523;28;20043;-89
2022/02/27 02:35:39;;;;;;;13.27;4.45;;;2.60;91.40;;;;;;2054650;28;20409;-89
2022/02/27 02:36:42;;;;;;;9.30;4.00;;;2.60;91.40;;;;;;2052051;28;20177;-88
2022/02/27 02:37:43;;;;;;;12.10;3.90;;;2.60;91.40;;;;;;2062873;28;20077;-89
2022/02/27 02:38:43;;;;;;;8.98;3.83;;;2.60;91.50;;;;;;2054961;28;20043;-89
2022/02/27 02:39:44;;;;;;;9.50;3.92;;;2.60;91.50;;;;;;2062524;28;20078;-89
2022/02/27 02:40:45;;;;;;;9.65;3.85;;;2.60;91.40;;;;;;2055514;28;20041;-89
2022/02/27 02:41:46;;;;;;;13.07;3.95;;;2.60;91.40;;;;;;2056088;28;20046;-89
2022/02/27 02:42:46;;;;;;;6.53;3.58;;;2.60;91.40;;;;;;2056609;28;20425;-89
2022/02/27 02:43:47;;;;;;;13.85;4.50;;;2.60;91.40;;;;;;2059056;28;20042;-89
2022/02/27 02:44:50;;;;;;;15.95;4.40;;;2.60;91.40;;;;;;2051545;28;20035;-88
2022/02/27 02:45:53;;;;;;;15.93;4.03;;;2.60;91.40;;;;;;2060429;28;20031;-89
2022/02/27 02:46:54;;;;;;;10.18;3.60;;;2.60;91.40;;;;;;2061500;28;20043;-89
2022/02/27 02:47:59;;;;;;;10.65;4.32;;;2.60;91.40;;;;;;2060605;28;20081;-88
2022/02/27 02:48:59;;;;;;;9.07;3.35;;;2.60;91.40;;;;;;2064226;28;20039;-89
2022/02/27 02:50:00;;;;;;;8.30;3.65;;;2.60;91.40;;;;;;2101031;28;20053;-89
2022/02/27 02:51:00;;;;;;;7.90;3.70;;;2.60;91.40;;;;;;2080441;28;20047;-88
2022/02/27 02:52:01;;;;;;;9.38;3.50;;;2.60;91.40;;;;;;2060130;28;20398;-88
2022/02/27 02:53:02;;;;;;;7.95;3.13;;;2.60;91.70;;;;;;2048605;28;20074;-89
2022/02/27 02:54:03;;;;;;;8.73;3.63;;;2.60;91.40;;;;;;2057314;28;20043;-89
2022/02/27 02:55:10;;;;;;;9.07;3.55;;;2.60;91.40;;;;;;2061925;28;20034;-88
2022/02/27 02:56:11;;;;;;;13.02;3.63;;;2.60;91.40;;;;;;2064352;28;20446;-89
2022/02/27 02:57:14;;;;;;;13.55;3.40;;;2.60;91.40;;;;;;2063991;28;20038;-89
2022/02/27 02:58:14;;;;;;;9.55;3.70;;;2.60;91.40;;;;;;2064314;28;20038;-88
2022/02/27 02:59:15;;;;;;;8.45;3.47;;;2.60;91.40;;;;;;2063387;28;20477;-88
2022/02/27 03:00:16;;;;;;;7.82;3.10;;;2.60;91.40;;;;;;2061769;28;20084;-89
2022/02/27 03:01:19;;;;;;;8.32;3.47;;;2.60;91.40;;;;;;2056459;28;20081;-89
2022/02/27 03:02:20;;;;;;;10.70;3.40;;;2.60;91.40;;;;;;2062803;28;20108;-89
2022/02/27 03:03:20;;;;;;;7.93;2.85;;;2.60;91.40;;;;;;2063911;28;20065;-89
2022/02/27 03:04:21;;;;;;;7.70;3.03;;;2.60;91.40;;;;;;2064355;28;20126;-89
2022/02/27 03:05:22;;;;;;;7.65;3.15;;;2.60;91.30;;;;;;2064453;28;20450;-89
2022/02/27 03:06:23;;;;;;;8.70;3.45;;;2.60;91.30;;;;;;2070419;28;20038;-89
2022/02/27 03:07:24;;;;;;;7.72;3.53;;;2.60;91.30;;;;;;2063576;28;20076;-89
2022/02/27 03:08:24;;;;;;;8.45;3.05;;;2.60;91.30;;;;;;2053326;28;20046;-88
2022/02/27 03:09:25;;;;;;;7.85;3.22;;;2.60;91.30;;;;;;2054880;28;20663;-89
2022/02/27 03:10:26;;;;;;;10.27;3.30;;;2.60;91.30;;;;;;2041351;28;20123;-89
2022/02/27 03:11:26;;;;;;;9.73;3.67;;;2.60;91.30;;;;;;2039582;28;20044;-89
2022/02/27 03:12:27;;;;;;;7.80;3.33;;;2.60;91.30;;;;;;2060451;28;20039;-89
2022/02/27 03:13:28;;;;;;;6.65;2.85;;;2.70;91.30;;;;;;2055621;28;20038;-89
2022/02/27 03:14:28;;;;;;;8.05;3.10;;;2.60;91.30;;;;;;2053144;28;20520;-89
2022/02/27 03:15:29;;;;;;;8.02;3.17;;;2.60;91.30;;;;;;2085143;28;20045;-89
2022/02/27 03:16:30;;;;;;;7.90;3.50;;;2.60;91.30;;;;;;2055881;28;20042;-89
2022/02/27 03:17:31;;;;;;;9.27;3.40;;;2.60;91.30;;;;;;2057710;28;20051;-88
2022/02/27 03:18:32;;;;;;;9.85;3.15;;;2.60;91.30;;;;;;2055132;28;20035;-89
2022/02/27 03:19:32;;;;;;;8.52;3.65;;;2.60;91.50;;;;;;2055363;28;20027;-89
2022/02/27 03:20:33;;;;;;;8.63;3.00;;;2.60;91.20;;;;;;2063218;28;20559;-89
2022/02/27 03:21:33;;;;;;;7.25;3.00;;;2.60;91.30;;;;;;2061047;28;20046;-89
2022/02/27 03:22:34;;;;;;;9.02;3.03;;;2.60;91.30;;;;;;2060545;28;20133;-88
2022/02/27 03:23:36;;;;;;;9.48;3.10;;;2.60;91.30;;;;;;2061822;28;20038;-89
2022/02/27 03:24:36;;;;;;;11.20;3.15;;;2.50;91.30;;;;;;2057627;28;20052;-88
2022/02/27 03:25:37;;;;;;;9.50;3.33;;;2.60;91.30;;;;;;2054360;28;20047;-88
2022/02/27 03:26:37;;;;;;;8.60;3.63;;;2.50;91.30;;;;;;2088296;28;20041;-89
2022/02/27 03:27:38;;;;;;;8.45;3.08;;;2.50;91.50;;;;;;2047018;28;20039;-88
2022/02/27 03:28:39;;;;;;;10.35;3.25;;;2.50;91.30;;;;;;2088977;28;20036;-88
2022/02/27 03:29:39;;;;;;;10.32;3.70;;;2.50;91.30;;;;;;2097129;28;20449;-89
2022/02/27 03:30:40;;;;;;;11.80;3.05;;;2.50;91.30;;;;;;2055545;28;20034;-88
2022/02/27 03:31:41;;;;;;;7.90;3.17;;;2.50;91.30;;;;;;2062675;28;20070;-88
2022/02/27 03:32:46;;;;;;;9.65;3.60;;;2.50;91.30;;;;;;2055124;28;20038;-89
2022/02/27 03:33:47;;;;;;;8.70;3.42;;;2.50;91.30;;;;;;2054456;28;20038;-89
2022/02/27 03:34:48;;;;;;;9.80;3.40;;;2.50;91.30;;;;;;2055504;28;20035;-89
2022/02/27 03:35:48;;;;;;;8.73;3.40;;;2.50;91.30;;;;;;2063647;28;20103;-89
2022/02/27 03:36:49;;;;;;;8.85;3.47;;;2.50;91.30;;;;;;2063634;28;20501;-89
2022/02/27 03:37:50;;;;;;;10.77;3.60;;;2.50;91.30;;;;;;2055111;28;20039;-89
2022/02/27 03:38:51;;;;;;;8.75;3.17;;;2.50;91.30;;;;;;2053345;28;20065;-88
2022/02/27 03:39:51;;;;;;;8.63;3.40;;;2.50;91.30;;;;;;2064252;28;21035;-88
2022/02/27 03:40:53;;;;;;;9.52;3.38;;;2.50;91.30;;;;;;2055484;28;20035;-88
2022/02/27 03:41:53;;;;;;;8.25;3.40;;;2.50;91.30;;;;;;2056257;28;20516;-89
2022/02/27 03:42:54;;;;;;;9.48;3.35;;;2.50;91.30;;;;;;2063557;28;20127;-89
2022/02/27 03:43:55;;;;;;;7.40;3.35;;;2.50;91.30;;;;;;2063108;28;20041;-89
2022/02/27 03:44:55;;;;;;;8.00;3.15;;;2.50;91.30;;;;;;2060109;28;20053;-89
2022/02/27 03:45:56;;;;;;;8.80;3.30;;;2.50;91.30;;;;;;2056039;28;20031;-89
2022/02/27 03:46:56;;;;;;;7.03;3.03;;;2.50;91.30;;;;;;2056303;28;20559;-89
2022/02/27 03:47:57;;;;;;;9.60;3.20;;;2.50;91.30;;;;;;2057292;28;20465;-89
2022/02/27 03:48:57;;;;;;;8.88;3.33;;;2.50;91.40;;;;;;2056692;28;20053;-89
2022/02/27 03:49:58;;;;;;;9.02;3.72;;;2.50;91.40;;;;;;2056799;28;20050;-89
2022/02/27 03:50:59;;;;;;;9.68;3.08;;;2.50;91.40;;;;;;2055600;28;20117;-89
2022/02/27 03:51:59;;;;;;;7.78;2.83;;;2.50;91.40;;;;;;2048096;28;20472;-88
2022/02/27 03:53:00;;;;;;;8.57;3.38;;;2.50;91.40;;;;;;2056878;28;20481;-89
2022/02/27 03:54:05;;;;;;;7.80;3.13;;;2.50;91.40;;;;;;2057464;28;20039;-88
2022/02/27 03:55:09;;;;;;;10.38;3.42;;;2.50;91.40;;;;;;2062758;28;20038;-89
2022/02/27 03:56:09;;;;;;;8.90;3.10;;;2.50;91.40;;;;;;2064785;28;20026;-89
2022/02/27 03:57:10;;;;;;;8.48;2.90;;;2.50;91.40;;;;;;2063384;28;20504;-89
2022/02/27 03:58:10;;;;;;;7.05;3.08;;;2.50;91.40;;;;;;2061795;28;20026;-89
2022/02/27 03:59:11;;;;;;;8.75;2.60;;;2.50;91.40;;;;;;2048354;28;20088;-89
2022/02/27 04:00:17;;;;;;;9.23;3.60;;;2.50;91.40;;;;;;2048333;28;20036;-88
2022/02/27 04:01:17;;;;;;;9.45;3.72;;;2.40;91.40;;;;;;2057060;28;20055;-88
2022/02/27 04:02:18;;;;;;;9.73;3.42;;;2.40;91.40;;;;;;2056639;28;20102;-88
2022/02/27 04:03:19;;;;;;;9.00;3.47;;;2.50;91.40;;;;;;2061105;28;20042;-89
2022/02/27 04:04:20;;;;;;;11.10;3.33;;;2.50;91.40;;;;;;2063991;28;20046;-89
2022/02/27 04:05:20;;;;;;;9.05;3.22;;;2.40;91.40;;;;;;2056029;28;20031;-88
2022/02/27 04:06:21;;;;;;;9.93;3.25;;;2.50;91.40;;;;;;2048681;28;20579;-89
2022/02/27 04:07:22;;;;;;;8.73;3.50;;;2.40;91.40;;;;;;2057965;28;20424;-89
2022/02/27 04:08:22;;;;;;;11.40;3.70;;;2.40;91.40;;;;;;2064192;28;20123;-89
2022/02/27 04:09:23;;;;;;;10.38;3.40;;;2.40;91.40;;;;;;2056381;28;20430;-88
2022/02/27 04:10:24;;;;;;;8.68;3.20;;;2.50;91.40;;;;;;2055588;28;20043;-89
2022/02/27 04:11:24;;;;;;;10.95;3.15;;;2.40;91.40;;;;;;2062886;28;20445;-89
2022/02/27 04:12:25;;;;;;;9.63;3.42;;;2.50;91.50;;;;;;2057195;28;20114;-89
2022/02/27 04:13:26;;;;;;;9.85;3.30;;;2.40;91.40;;;;;;2055403;28;20050;-89
2022/02/27 04:14:26;;;;;;;9.07;3.03;;;2.40;91.40;;;;;;2047027;28;20051;-89
2022/02/27 04:15:27;;;;;;;8.98;3.20;;;2.40;91.50;;;;;;2075422;28;20047;-89
2022/02/27 04:16:28;;;;;;;12.38;3.53;;;2.40;91.50;;;;;;2064022;28;20042;-89
2022/02/27 04:17:28;;;;;;;10.23;3.08;;;2.40;91.50;;;;;;2012562;28;1279230;-89
2022/02/27 04:18:29;;;;;;;8.15;3.17;;;2.40;91.50;;;;;;2064977;28;20421;-89
2022/02/27 04:19:30;;;;;;;7.22;3.17;;;2.40;91.50;;;;;;2064533;28;20046;-89
2022/02/27 04:20:31;;;;;;;6.55;2.92;;;2.40;91.50;;;;;;2062633;28;20484;-89
2022/02/27 04:21:32;;;;;;;13.00;3.55;;;2.40;91.50;;;;;;2060207;28;20050;-89
2022/02/27 04:22:34;;;;;;;8.35;3.15;;;2.30;91.50;;;;;;2057176;28;20129;-89
2022/02/27 04:23:34;;;;;;;6.68;3.00;;;2.30;91.50;;;;;;2063082;28;20049;-89
2022/02/27 04:24:35;;;;;;;10.40;3.72;;;2.30;91.50;;;;;;2065386;28;20037;-89
2022/02/27 04:25:36;;;;;;;10.77;3.42;;;2.30;91.50;;;;;;2065432;28;20072;-89
2022/02/27 04:26:36;;;;;;;10.27;3.25;;;2.30;91.50;;;;;;2056700;28;20062;-89
2022/02/27 04:27:37;;;;;;;8.65;2.90;;;2.30;91.50;;;;;;2056729;28;20604;-88
2022/02/27 04:28:38;;;;;;;8.32;3.60;;;2.30;91.50;;;;;;2054511;28;20069;-88
2022/02/27 04:29:38;;;;;;;10.00;3.63;;;2.30;91.80;;;;;;2081012;28;20068;-89
2022/02/27 04:30:39;;;;;;;8.02;3.10;;;2.30;91.50;;;;;;2057302;28;20038;-89
2022/02/27 04:31:40;;;;;;;7.05;2.90;;;2.30;91.50;;;;;;2063378;28;20046;-89
2022/02/27 04:32:40;;;;;;;7.78;3.17;;;2.30;91.50;;;;;;2056060;28;20035;-89
2022/02/27 04:33:41;;;;;;;10.75;3.80;;;2.30;91.80;;;;;;2055565;28;20083;-89
2022/02/27 04:34:42;;;;;;;8.77;2.90;;;2.30;91.50;;;;;;2056808;28;20035;-88
2022/02/27 04:35:42;;;;;;;8.45;3.10;;;2.30;91.50;;;;;;2056594;28;20554;-89
2022/02/27 04:36:43;;;;;;;7.50;2.80;;;2.30;91.50;;;;;;2050378;28;20039;-89
2022/02/27 04:37:44;;;;;;;8.18;3.38;;;2.30;91.50;;;;;;2048211;28;20489;-88
2022/02/27 04:38:45;;;;;;;8.15;3.15;;;2.30;91.50;;;;;;2056391;28;20035;-89
2022/02/27 04:39:45;;;;;;;7.82;3.25;;;2.20;91.50;;;;;;2064468;28;20049;-88
2022/02/27 04:40:46;;;;;;;11.55;3.47;;;2.30;91.50;;;;;;2056289;28;20034;-88
2022/02/27 04:41:47;;;;;;;7.32;2.85;;;2.20;91.50;;;;;;2052436;28;20465;-89
2022/02/27 04:42:47;;;;;;;9.65;3.40;;;2.20;91.50;;;;;;2061148;28;20037;-89
2022/02/27 04:43:49;;;;;;;8.10;3.20;;;2.20;91.50;;;;;;2054911;28;20538;-88
2022/02/27 04:44:50;;;;;;;10.85;3.35;;;2.20;91.60;;;;;;2056933;28;20039;-89
2022/02/27 04:45:50;;;;;;;7.50;3.33;;;2.20;91.60;;;;;;2055614;28;20485;-88
2022/02/27 04:46:51;;;;;;;12.57;4.10;;;2.20;91.60;;;;;;2055427;28;20077;-89
2022/02/27 04:47:52;;;;;;;7.15;3.20;;;2.20;91.60;;;;;;2067713;28;20038;-89
2022/02/27 04:48:52;;;;;;;11.07;3.72;;;2.20;91.60;;;;;;2063594;28;20042;-88
2022/02/27 04:49:53;;;;;;;8.93;4.03;;;2.20;91.60;;;;;;2056532;28;20553;-89
2022/02/27 04:50:54;;;;;;;8.23;3.10;;;2.20;91.60;;;;;;2060184;28;20089;-89
2022/02/27 04:51:55;;;;;;;9.10;3.10;;;2.20;91.60;;;;;;2055529;28;20460;-89
2022/02/27 04:52:56;;;;;;;10.73;3.45;;;2.20;91.60;;;;;;2056322;28;20046;-88
2022/02/27 04:53:56;;;;;;;9.55;3.80;;;2.20;91.60;;;;;;2048967;28;20101;-89
2022/02/27 04:54:57;;;;;;;7.93;3.58;;;2.20;91.70;;;;;;2049190;29;20142;-88
2022/02/27 04:55:57;;;;;;;8.90;3.35;;;2.10;91.60;;;;;;2049202;28;20046;-88
2022/02/27 04:56:58;;;;;;;8.05;3.42;;;2.10;91.60;;;;;;2065116;28;20038;-88
2022/02/27 04:57:59;;;;;;;9.05;3.45;;;2.10;91.60;;;;;;2098445;28;20058;-89
2022/02/27 04:58:59;;;;;;;9.93;3.83;;;2.10;91.70;;;;;;2098283;28;20032;-89
2022/02/27 05:00:00;;;;;;;8.32;3.22;;;2.10;91.70;;;;;;2090233;28;20055;-89
2022/02/27 05:01:01;;;;;;;7.25;3.08;;;2.10;91.70;;;;;;2079335;28;20037;-89
2022/02/27 05:02:02;;;;;;;8.45;3.25;;;2.10;91.70;;;;;;2053693;28;20090;-88
2022/02/27 05:03:02;;;;;;;6.95;3.03;;;2.10;91.70;;;;;;2055563;28;20460;-89
2022/02/27 05:04:03;;;;;;;11.43;3.83;;;2.10;91.70;;;;;;2064425;28;20042;-89
2022/02/27 05:05:04;;;;;;;12.32;3.88;;;2.10;91.70;;;;;;2063626;28;20039;-89
2022/02/27 05:06:05;;;;;;;10.45;3.80;;;2.10;91.70;;;;;;2056492;28;20091;-89
2022/02/27 05:07:06;;;;;;;10.55;4.05;;;2.10;91.70;;;;;;2053422;28;20030;-88
2022/02/27 05:08:06;;;;;;;10.60;4.25;;;2.10;91.70;;;;;;2064155;28;20467;-89
2022/02/27 05:09:07;;;;;;;9.25;3.30;;;2.10;91.70;;;;;;2055462;28;20039;-88
2022/02/27 05:10:09;;;;;;;8.60;3.50;;;2.10;91.70;;;;;;2056243;28;20536;-89
2022/02/27 05:11:09;;;;;;;9.85;3.22;;;2.10;91.70;;;;;;2064142;28;20058;-89
2022/02/27 05:12:10;;;;;;;7.47;3.15;;;2.10;91.70;;;;;;2063713;28;20050;-88
2022/02/27 05:13:10;;;;;;;10.15;3.47;;;2.10;91.70;;;;;;2056056;28;20415;-89
2022/02/27 05:14:12;;;;;;;6.63;2.75;;;2.10;91.70;;;;;;2056079;28;20651;-89
2022/02/27 05:15:13;;;;;;;8.05;3.25;;;2.10;91.70;;;;;;2056296;28;20093;-89
2022/02/27 05:16:13;;;;;;;12.95;3.70;;;2.10;91.80;;;;;;2068835;28;20469;-89
2022/02/27 05:17:14;;;;;;;9.30;3.58;;;2.10;91.70;;;;;;2081382;28;20057;-89
2022/02/27 05:18:15;;;;;;;9.45;3.20;;;2.10;91.70;;;;;;2056034;28;20075;-89
2022/02/27 05:19:15;;;;;;;8.80;3.28;;;2.10;91.80;;;;;;2054828;28;20073;-89